Terminal Aerodrome Forecast
Issued by NWS

Home | Current Version | Previous Version | Text Only | Print | Product List | Glossary On
Versions: 1 2 3 4 5 6 7 8 9 10 11 12 13 14 15 16 17 18 19 20 21 22 23 24 25 26 27
000
FTUS43 KILX 252055 AAC
TAFBMI
TAF AMD
KBMI 252055Z 2521/2618 25010G16KT P6SM VCSH SCT040 BKN080
     FM260200 29012KT P6SM -SHRA SCT040 OVC100
     FM260900 31010KT P6SM BKN100
     FM261500 28015G20KT P6SM SCT045=

USA.gov is the U.S. government's official web portal to all federal, state and local government web resources and services.